sensor_id;sensor_type;location;lat;lon;timestamp;temperature;humidity
52565;DHT22;38460;53.106;7.004;2023-07-08T00:00:44;17.10;99.90
52565;DHT22;38460;53.106;7.004;2023-07-08T00:03:11;17.10;99.90
52565;DHT22;38460;53.106;7.004;2023-07-08T00:05:37;17.10;99.90
52565;DHT22;38460;53.106;7.004;2023-07-08T00:08:02;17.00;99.90
52565;DHT22;38460;53.106;7.004;2023-07-08T00:10:29;17.00;99.90
52565;DHT22;38460;53.106;7.004;2023-07-08T00:12:57;17.00;99.90
52565;DHT22;38460;53.106;7.004;2023-07-08T00:15:31;16.90;99.90
52565;DHT22;38460;53.106;7.004;2023-07-08T00:17:58;16.90;99.90
52565;DHT22;38460;53.106;7.004;2023-07-08T00:20:37;16.90;99.90
52565;DHT22;38460;53.106;7.004;2023-07-08T00:23:04;16.90;99.90
52565;DHT22;38460;53.106;7.004;2023-07-08T00:25:30;16.80;99.90
52565;DHT22;38460;53.106;7.004;2023-07-08T00:27:57;16.80;99.90
52565;DHT22;38460;53.106;7.004;2023-07-08T00:32:50;16.70;99.90
52565;DHT22;38460;53.106;7.004;2023-07-08T00:37:55;16.70;99.90
52565;DHT22;38460;53.106;7.004;2023-07-08T00:40:29;16.70;99.90
52565;DHT22;38460;53.106;7.004;2023-07-08T00:42:57;16.70;99.90
52565;DHT22;38460;53.106;7.004;2023-07-08T00:45:40;16.60;99.90
52565;DHT22;38460;53.106;7.004;2023-07-08T00:50:48;16.60;99.90
52565;DHT22;38460;53.106;7.004;2023-07-08T00:56:15;16.50;99.90
52565;DHT22;38460;53.106;7.004;2023-07-08T00:58:52;16.50;99.90
52565;DHT22;38460;53.106;7.004;2023-07-08T01:01:19;16.50;99.90
52565;DHT22;38460;53.106;7.004;2023-07-08T01:03:51;16.50;99.90
52565;DHT22;38460;53.106;7.004;2023-07-08T01:06:19;16.40;99.90
52565;DHT22;38460;53.106;7.004;2023-07-08T01:08:47;16.40;99.90
52565;DHT22;38460;53.106;7.004;2023-07-08T01:11:15;16.40;99.90
52565;DHT22;38460;53.106;7.004;2023-07-08T01:13:43;16.40;99.90
52565;DHT22;38460;53.106;7.004;2023-07-08T01:16:10;16.40;99.90
52565;DHT22;38460;53.106;7.004;2023-07-08T01:18:36;16.40;99.90
52565;DHT22;38460;53.106;7.004;2023-07-08T01:21:30;16.40;99.90
52565;DHT22;38460;53.106;7.004;2023-07-08T01:23:56;16.30;99.90
52565;DHT22;38460;53.106;7.004;2023-07-08T01:26:23;16.40;99.90
52565;DHT22;38460;53.106;7.004;2023-07-08T01:28:52;16.30;99.90
52565;DHT22;38460;53.106;7.004;2023-07-08T01:31:19;16.30;99.90
52565;DHT22;38460;53.106;7.004;2023-07-08T01:33:45;16.30;99.90
52565;DHT22;38460;53.106;7.004;2023-07-08T01:36:11;16.30;99.90
52565;DHT22;38460;53.106;7.004;2023-07-08T01:38:38;16.20;99.90
52565;DHT22;38460;53.106;7.004;2023-07-08T01:41:05;16.20;99.90
52565;DHT22;38460;53.106;7.004;2023-07-08T01:43:31;16.40;99.90
52565;DHT22;38460;53.106;7.004;2023-07-08T01:46:00;16.20;99.90
52565;DHT22;38460;53.106;7.004;2023-07-08T01:48:31;16.20;99.90
52565;DHT22;38460;53.106;7.004;2023-07-08T01:51:06;16.20;99.90
52565;DHT22;38460;53.106;7.004;2023-07-08T01:53:35;16.10;99.90
52565;DHT22;38460;53.106;7.004;2023-07-08T01:56:02;16.10;99.90
52565;DHT22;38460;53.106;7.004;2023-07-08T01:58:28;16.10;99.90
52565;DHT22;38460;53.106;7.004;2023-07-08T02:00:54;16.00;99.90
52565;DHT22;38460;53.106;7.004;2023-07-08T02:03:21;16.00;99.90
52565;DHT22;38460;53.106;7.004;2023-07-08T02:05:47;16.00;99.90
52565;DHT22;38460;53.106;7.004;2023-07-08T02:08:12;16.00;99.90
52565;DHT22;38460;53.106;7.004;2023-07-08T02:10:39;15.90;99.90
52565;DHT22;38460;53.106;7.004;2023-07-08T02:13:05;15.90;99.90
52565;DHT22;38460;53.106;7.004;2023-07-08T02:15:31;15.90;99.90
52565;DHT22;38460;53.106;7.004;2023-07-08T02:17:57;15.90;99.90
52565;DHT22;38460;53.106;7.004;2023-07-08T02:20:23;15.90;99.90
52565;DHT22;38460;53.106;7.004;2023-07-08T02:22:49;15.90;99.90
52565;DHT22;38460;53.106;7.004;2023-07-08T02:25:14;15.80;99.90
52565;DHT22;38460;53.106;7.004;2023-07-08T02:27:41;15.80;99.90
52565;DHT22;38460;53.106;7.004;2023-07-08T02:30:08;15.80;99.90
52565;DHT22;38460;53.106;7.004;2023-07-08T02:32:34;15.80;99.90
52565;DHT22;38460;53.106;7.004;2023-07-08T02:35:05;15.80;99.90
52565;DHT22;38460;53.106;7.004;2023-07-08T02:37:31;15.80;99.90
52565;DHT22;38460;53.106;7.004;2023-07-08T02:39:57;15.80;99.90
52565;DHT22;38460;53.106;7.004;2023-07-08T02:42:23;15.70;99.90
52565;DHT22;38460;53.106;7.004;2023-07-08T02:44:49;15.70;99.90
52565;DHT22;38460;53.106;7.004;2023-07-08T02:47:15;15.70;99.90
52565;DHT22;38460;53.106;7.004;2023-07-08T02:49:41;15.70;99.90
52565;DHT22;38460;53.106;7.004;2023-07-08T02:52:06;15.60;99.90
52565;DHT22;38460;53.106;7.004;2023-07-08T02:54:32;15.60;99.90
52565;DHT22;38460;53.106;7.004;2023-07-08T02:56:58;15.60;99.90
52565;DHT22;38460;53.106;7.004;2023-07-08T02:59:24;15.60;99.90
52565;DHT22;38460;53.106;7.004;2023-07-08T03:01:49;15.50;99.90
52565;DHT22;38460;53.106;7.004;2023-07-08T03:04:15;15.50;99.90
52565;DHT22;38460;53.106;7.004;2023-07-08T03:06:44;15.50;99.90
52565;DHT22;38460;53.106;7.004;2023-07-08T03:09:11;15.50;99.90
52565;DHT22;38460;53.106;7.004;2023-07-08T03:11:38;15.40;99.90
52565;DHT22;38460;53.106;7.004;2023-07-08T03:14:05;15.40;99.90
52565;DHT22;38460;53.106;7.004;2023-07-08T03:16:31;15.40;99.90
52565;DHT22;38460;53.106;7.004;2023-07-08T03:18:56;15.40;99.90
52565;DHT22;38460;53.106;7.004;2023-07-08T03:21:22;15.30;99.90
52565;DHT22;38460;53.106;7.004;2023-07-08T03:23:49;15.30;99.90
52565;DHT22;38460;53.106;7.004;2023-07-08T03:26:19;15.30;99.90
52565;DHT22;38460;53.106;7.004;2023-07-08T03:28:47;15.30;99.90
52565;DHT22;38460;53.106;7.004;2023-07-08T03:31:13;15.30;99.90
52565;DHT22;38460;53.106;7.004;2023-07-08T03:33:39;15.30;99.90
52565;DHT22;38460;53.106;7.004;2023-07-08T03:36:13;15.20;99.90
52565;DHT22;38460;53.106;7.004;2023-07-08T03:38:57;15.20;99.90
52565;DHT22;38460;53.106;7.004;2023-07-08T03:41:24;15.20;99.90
52565;DHT22;38460;53.106;7.004;2023-07-08T03:43:50;15.20;99.90
52565;DHT22;38460;53.106;7.004;2023-07-08T03:46:20;15.20;99.90
52565;DHT22;38460;53.106;7.004;2023-07-08T03:48:47;15.20;99.90
52565;DHT22;38460;53.106;7.004;2023-07-08T03:51:27;15.20;99.90
52565;DHT22;38460;53.106;7.004;2023-07-08T03:53:54;15.20;99.90
52565;DHT22;38460;53.106;7.004;2023-07-08T03:56:20;15.20;99.90
52565;DHT22;38460;53.106;7.004;2023-07-08T03:58:46;15.20;99.90
52565;DHT22;38460;53.106;7.004;2023-07-08T04:01:15;15.20;99.90
52565;DHT22;38460;53.106;7.004;2023-07-08T04:03:42;15.20;99.90
52565;DHT22;38460;53.106;7.004;2023-07-08T04:06:08;15.20;99.90
52565;DHT22;38460;53.106;7.004;2023-07-08T04:08:34;15.20;99.90
52565;DHT22;38460;53.106;7.004;2023-07-08T04:10:59;15.20;99.90
52565;DHT22;38460;53.106;7.004;2023-07-08T04:13:25;15.10;99.90
52565;DHT22;38460;53.106;7.004;2023-07-08T04:15:59;15.20;99.90
52565;DHT22;38460;53.106;7.004;2023-07-08T04:18:26;15.20;99.90
52565;DHT22;38460;53.106;7.004;2023-07-08T04:20:52;15.20;99.90
52565;DHT22;38460;53.106;7.004;2023-07-08T04:23:22;15.30;99.90
52565;DHT22;38460;53.106;7.004;2023-07-08T04:25:49;15.30;99.90
52565;DHT22;38460;53.106;7.004;2023-07-08T04:28:16;15.30;99.90
52565;DHT22;38460;53.106;7.004;2023-07-08T04:30:42;15.30;99.90
52565;DHT22;38460;53.106;7.004;2023-07-08T04:33:09;15.30;99.90
52565;DHT22;38460;53.106;7.004;2023-07-08T04:35:36;15.30;99.90
52565;DHT22;38460;53.106;7.004;2023-07-08T04:38:10;15.40;99.90
52565;DHT22;38460;53.106;7.004;2023-07-08T04:40:39;15.40;99.90
52565;DHT22;38460;53.106;7.004;2023-07-08T04:43:09;15.40;99.90
52565;DHT22;38460;53.106;7.004;2023-07-08T04:45:39;15.40;99.90
52565;DHT22;38460;53.106;7.004;2023-07-08T04:48:05;15.40;99.90
52565;DHT22;38460;53.106;7.004;2023-07-08T04:50:45;15.50;99.90
52565;DHT22;38460;53.106;7.004;2023-07-08T04:53:12;15.50;99.90
52565;DHT22;38460;53.106;7.004;2023-07-08T04:55:42;15.50;99.90
52565;DHT22;38460;53.106;7.004;2023-07-08T04:58:09;15.50;99.90
52565;DHT22;38460;53.106;7.004;2023-07-08T05:00:35;15.60;99.90
52565;DHT22;38460;53.106;7.004;2023-07-08T05:03:00;15.60;99.90
52565;DHT22;38460;53.106;7.004;2023-07-08T05:05:26;15.70;99.90
52565;DHT22;38460;53.106;7.004;2023-07-08T05:07:52;15.70;99.90
52565;DHT22;38460;53.106;7.004;2023-07-08T05:10:18;15.80;99.90
52565;DHT22;38460;53.106;7.004;2023-07-08T05:12:45;15.80;99.90
52565;DHT22;38460;53.106;7.004;2023-07-08T05:15:11;15.80;99.90
52565;DHT22;38460;53.106;7.004;2023-07-08T05:17:38;15.90;99.90
52565;DHT22;38460;53.106;7.004;2023-07-08T05:20:06;15.90;99.90
52565;DHT22;38460;53.106;7.004;2023-07-08T05:22:33;16.00;99.90
52565;DHT22;38460;53.106;7.004;2023-07-08T05:24:59;16.10;99.90
52565;DHT22;38460;53.106;7.004;2023-07-08T05:27:25;16.10;99.90
52565;DHT22;38460;53.106;7.004;2023-07-08T05:29:51;16.20;99.90
52565;DHT22;38460;53.106;7.004;2023-07-08T05:32:17;16.20;99.90
52565;DHT22;38460;53.106;7.004;2023-07-08T05:34:43;16.30;99.90
52565;DHT22;38460;53.106;7.004;2023-07-08T05:37:10;16.30;99.90
52565;DHT22;38460;53.106;7.004;2023-07-08T05:39:36;16.40;99.90
52565;DHT22;38460;53.106;7.004;2023-07-08T05:42:02;16.50;99.90
52565;DHT22;38460;53.106;7.004;2023-07-08T05:44:27;16.50;99.90
52565;DHT22;38460;53.106;7.004;2023-07-08T05:46:53;16.70;99.90
52565;DHT22;38460;53.106;7.004;2023-07-08T05:49:19;16.70;99.90
52565;DHT22;38460;53.106;7.004;2023-07-08T05:51:45;16.80;99.90
52565;DHT22;38460;53.106;7.004;2023-07-08T05:54:11;16.90;99.90
52565;DHT22;38460;53.106;7.004;2023-07-08T05:56:36;16.90;99.90
52565;DHT22;38460;53.106;7.004;2023-07-08T05:59:03;17.00;99.90
52565;DHT22;38460;53.106;7.004;2023-07-08T06:01:29;17.10;99.90
52565;DHT22;38460;53.106;7.004;2023-07-08T06:03:55;17.20;99.90
52565;DHT22;38460;53.106;7.004;2023-07-08T06:06:24;17.20;99.90
52565;DHT22;38460;53.106;7.004;2023-07-08T06:08:50;17.30;99.90
52565;DHT22;38460;53.106;7.004;2023-07-08T06:11:16;17.30;99.90
52565;DHT22;38460;53.106;7.004;2023-07-08T06:13:42;17.40;99.90
52565;DHT22;38460;53.106;7.004;2023-07-08T06:16:07;17.50;99.90
52565;DHT22;38460;53.106;7.004;2023-07-08T06:18:33;17.60;99.90
52565;DHT22;38460;53.106;7.004;2023-07-08T06:20:59;17.70;99.90
52565;DHT22;38460;53.106;7.004;2023-07-08T06:23:25;17.80;99.90
52565;DHT22;38460;53.106;7.004;2023-07-08T06:25:51;17.80;99.90
52565;DHT22;38460;53.106;7.004;2023-07-08T06:28:17;17.90;99.90
52565;DHT22;38460;53.106;7.004;2023-07-08T06:30:43;18.00;99.90
52565;DHT22;38460;53.106;7.004;2023-07-08T06:33:09;18.10;99.90
52565;DHT22;38460;53.106;7.004;2023-07-08T06:35:37;18.20;99.90
52565;DHT22;38460;53.106;7.004;2023-07-08T06:38:03;18.20;99.90
52565;DHT22;38460;53.106;7.004;2023-07-08T06:40:29;18.30;99.90
52565;DHT22;38460;53.106;7.004;2023-07-08T06:42:55;18.40;99.90
52565;DHT22;38460;53.106;7.004;2023-07-08T06:45:21;18.40;99.90
52565;DHT22;38460;53.106;7.004;2023-07-08T06:47:47;18.50;99.90
52565;DHT22;38460;53.106;7.004;2023-07-08T06:50:13;18.60;99.90
52565;DHT22;38460;53.106;7.004;2023-07-08T06:52:38;18.70;99.90
52565;DHT22;38460;53.106;7.004;2023-07-08T06:55:07;18.80;99.90
52565;DHT22;38460;53.106;7.004;2023-07-08T06:57:34;18.80;99.90
52565;DHT22;38460;53.106;7.004;2023-07-08T07:00:00;18.90;99.90
52565;DHT22;38460;53.106;7.004;2023-07-08T07:02:26;19.00;99.90
52565;DHT22;38460;53.106;7.004;2023-07-08T07:04:52;19.10;99.90
52565;DHT22;38460;53.106;7.004;2023-07-08T07:07:18;19.20;99.90
52565;DHT22;38460;53.106;7.004;2023-07-08T07:09:44;19.30;99.90
52565;DHT22;38460;53.106;7.004;2023-07-08T07:12:09;19.40;99.90
52565;DHT22;38460;53.106;7.004;2023-07-08T07:14:35;19.50;99.90
52565;DHT22;38460;53.106;7.004;2023-07-08T07:17:01;19.50;99.90
52565;DHT22;38460;53.106;7.004;2023-07-08T07:19:27;19.70;99.90
52565;DHT22;38460;53.106;7.004;2023-07-08T07:21:53;19.80;99.90
52565;DHT22;38460;53.106;7.004;2023-07-08T07:24:18;19.90;99.90
52565;DHT22;38460;53.106;7.004;2023-07-08T07:26:44;20.00;99.90
52565;DHT22;38460;53.106;7.004;2023-07-08T07:29:10;20.00;99.90
52565;DHT22;38460;53.106;7.004;2023-07-08T07:31:36;20.10;99.90
52565;DHT22;38460;53.106;7.004;2023-07-08T07:34:05;20.20;99.90
52565;DHT22;38460;53.106;7.004;2023-07-08T07:36:31;20.30;99.90
52565;DHT22;38460;53.106;7.004;2023-07-08T07:38:56;20.30;99.90
52565;DHT22;38460;53.106;7.004;2023-07-08T07:41:22;20.40;99.90
52565;DHT22;38460;53.106;7.004;2023-07-08T07:43:49;20.50;99.90
52565;DHT22;38460;53.106;7.004;2023-07-08T07:46:14;20.60;99.90
52565;DHT22;38460;53.106;7.004;2023-07-08T07:48:40;20.70;99.90
52565;DHT22;38460;53.106;7.004;2023-07-08T07:51:08;20.80;99.90
52565;DHT22;38460;53.106;7.004;2023-07-08T07:53:37;20.90;99.90
52565;DHT22;38460;53.106;7.004;2023-07-08T07:56:03;21.00;99.90
52565;DHT22;38460;53.106;7.004;2023-07-08T07:58:30;21.10;99.90
52565;DHT22;38460;53.106;7.004;2023-07-08T08:00:56;21.20;99.90
52565;DHT22;38460;53.106;7.004;2023-07-08T08:03:22;21.30;99.90
52565;DHT22;38460;53.106;7.004;2023-07-08T08:05:48;21.40;99.90
52565;DHT22;38460;53.106;7.004;2023-07-08T08:08:15;21.50;99.90
52565;DHT22;38460;53.106;7.004;2023-07-08T08:10:42;21.60;99.90
52565;DHT22;38460;53.106;7.004;2023-07-08T08:13:09;21.70;99.90
52565;DHT22;38460;53.106;7.004;2023-07-08T08:15:35;21.90;99.90
52565;DHT22;38460;53.106;7.004;2023-07-08T08:18:01;22.00;99.90
52565;DHT22;38460;53.106;7.004;2023-07-08T08:20:28;22.10;99.90
52565;DHT22;38460;53.106;7.004;2023-07-08T08:22:54;22.10;99.90
52565;DHT22;38460;53.106;7.004;2023-07-08T08:25:21;22.30;99.90
52565;DHT22;38460;53.106;7.004;2023-07-08T08:27:47;22.30;99.90
52565;DHT22;38460;53.106;7.004;2023-07-08T08:30:13;22.50;99.90
52565;DHT22;38460;53.106;7.004;2023-07-08T08:32:39;22.50;99.90
52565;DHT22;38460;53.106;7.004;2023-07-08T08:35:05;22.60;99.90
52565;DHT22;38460;53.106;7.004;2023-07-08T08:37:31;22.70;99.90
52565;DHT22;38460;53.106;7.004;2023-07-08T08:39:57;22.80;99.90
52565;DHT22;38460;53.106;7.004;2023-07-08T08:42:41;22.90;99.90
52565;DHT22;38460;53.106;7.004;2023-07-08T08:45:16;23.00;99.90
52565;DHT22;38460;53.106;7.004;2023-07-08T08:47:45;23.10;99.90
52565;DHT22;38460;53.106;7.004;2023-07-08T08:53:01;23.30;99.90
52565;DHT22;38460;53.106;7.004;2023-07-08T08:55:28;23.40;99.90
52565;DHT22;38460;53.106;7.004;2023-07-08T09:00:55;23.60;99.70
52565;DHT22;38460;53.106;7.004;2023-07-08T09:06:31;23.80;98.90
52565;DHT22;38460;53.106;7.004;2023-07-08T09:11:57;24.00;98.90
52565;DHT22;38460;53.106;7.004;2023-07-08T09:14:29;24.10;98.70
52565;DHT22;38460;53.106;7.004;2023-07-08T09:17:10;24.20;98.30
52565;DHT22;38460;53.106;7.004;2023-07-08T09:19:44;24.30;98.30
52565;DHT22;38460;53.106;7.004;2023-07-08T09:22:39;24.50;98.30
52565;DHT22;38460;53.106;7.004;2023-07-08T09:27:42;24.60;97.70
52565;DHT22;38460;53.106;7.004;2023-07-08T09:30:16;24.70;97.70
52565;DHT22;38460;53.106;7.004;2023-07-08T09:32:42;24.80;97.30
52565;DHT22;38460;53.106;7.004;2023-07-08T09:35:09;24.90;97.30
52565;DHT22;38460;53.106;7.004;2023-07-08T09:37:37;25.00;97.00
52565;DHT22;38460;53.106;7.004;2023-07-08T09:45:42;25.30;96.90
52565;DHT22;38460;53.106;7.004;2023-07-08T09:48:16;25.40;96.70
52565;DHT22;38460;53.106;7.004;2023-07-08T09:50:44;25.40;96.20
52565;DHT22;38460;53.106;7.004;2023-07-08T09:53:14;25.50;96.20
52565;DHT22;38460;53.106;7.004;2023-07-08T09:55:40;25.60;96.30
52565;DHT22;38460;53.106;7.004;2023-07-08T09:58:11;25.70;96.30
52565;DHT22;38460;53.106;7.004;2023-07-08T10:00:40;25.80;96.00
52565;DHT22;38460;53.106;7.004;2023-07-08T10:03:20;25.80;95.80
52565;DHT22;38460;53.106;7.004;2023-07-08T10:05:48;25.90;95.70
52565;DHT22;38460;53.106;7.004;2023-07-08T10:08:17;26.00;95.60
52565;DHT22;38460;53.106;7.004;2023-07-08T10:10:45;26.10;95.40
52565;DHT22;38460;53.106;7.004;2023-07-08T10:13:20;26.10;95.20
52565;DHT22;38460;53.106;7.004;2023-07-08T10:18:43;26.20;95.20
52565;DHT22;38460;53.106;7.004;2023-07-08T10:26:46;26.40;94.80
52565;DHT22;38460;53.106;7.004;2023-07-08T10:29:27;26.50;94.70
52565;DHT22;38460;53.106;7.004;2023-07-08T10:32:18;26.60;94.50
52565;DHT22;38460;53.106;7.004;2023-07-08T10:51:48;27.30;94.20
52565;DHT22;38460;53.106;7.004;2023-07-08T10:54:21;27.30;93.90
52565;DHT22;38460;53.106;7.004;2023-07-08T10:57:01;27.40;93.10
52565;DHT22;38460;53.106;7.004;2023-07-08T11:02:49;27.60;93.00
52565;DHT22;38460;53.106;7.004;2023-07-08T11:05:43;27.60;93.20
52565;DHT22;38460;53.106;7.004;2023-07-08T11:08:24;27.80;92.60
52565;DHT22;38460;53.106;7.004;2023-07-08T11:11:00;27.90;92.40
52565;DHT22;38460;53.106;7.004;2023-07-08T11:13:29;28.00;92.40
52565;DHT22;38460;53.106;7.004;2023-07-08T11:16:10;28.10;92.60
52565;DHT22;38460;53.106;7.004;2023-07-08T11:18:48;28.10;92.00
52565;DHT22;38460;53.106;7.004;2023-07-08T11:29:01;28.50;91.60
52565;DHT22;38460;53.106;7.004;2023-07-08T11:31:31;28.60;91.50
52565;DHT22;38460;53.106;7.004;2023-07-08T11:33:59;28.70;91.00
52565;DHT22;38460;53.106;7.004;2023-07-08T11:36:27;28.80;90.50
52565;DHT22;38460;53.106;7.004;2023-07-08T11:38:55;28.80;90.20
52565;DHT22;38460;53.106;7.004;2023-07-08T11:41:26;28.90;89.70
52565;DHT22;38460;53.106;7.004;2023-07-08T11:44:10;29.00;89.00
52565;DHT22;38460;53.106;7.004;2023-07-08T11:46:53;29.10;88.60
52565;DHT22;38460;53.106;7.004;2023-07-08T11:49:20;29.20;88.80
52565;DHT22;38460;53.106;7.004;2023-07-08T11:51:47;29.30;88.10
52565;DHT22;38460;53.106;7.004;2023-07-08T11:54:20;29.40;88.10
52565;DHT22;38460;53.106;7.004;2023-07-08T11:56:59;29.50;87.20
52565;DHT22;38460;53.106;7.004;2023-07-08T11:59:29;29.60;86.90
52565;DHT22;38460;53.106;7.004;2023-07-08T12:04:33;29.80;85.30
52565;DHT22;38460;53.106;7.004;2023-07-08T12:07:17;29.90;85.50
52565;DHT22;38460;53.106;7.004;2023-07-08T12:09:57;30.00;85.80
52565;DHT22;38460;53.106;7.004;2023-07-08T12:12:29;30.10;84.60
52565;DHT22;38460;53.106;7.004;2023-07-08T12:15:43;30.20;84.80
52565;DHT22;38460;53.106;7.004;2023-07-08T12:17:56;30.20;83.50
52565;DHT22;38460;53.106;7.004;2023-07-08T12:20:26;30.30;83.80
52565;DHT22;38460;53.106;7.004;2023-07-08T12:22:52;30.40;84.30
52565;DHT22;38460;53.106;7.004;2023-07-08T12:25:21;30.50;83.40
52565;DHT22;38460;53.106;7.004;2023-07-08T12:27:47;30.50;82.20
52565;DHT22;38460;53.106;7.004;2023-07-08T12:30:14;30.50;81.00
52565;DHT22;38460;53.106;7.004;2023-07-08T12:32:41;30.60;80.70
52565;DHT22;38460;53.106;7.004;2023-07-08T12:35:22;30.60;80.10
52565;DHT22;38460;53.106;7.004;2023-07-08T12:37:48;30.60;80.10
52565;DHT22;38460;53.106;7.004;2023-07-08T12:40:15;30.70;80.40
52565;DHT22;38460;53.106;7.004;2023-07-08T12:42:41;30.80;80.30
52565;DHT22;38460;53.106;7.004;2023-07-08T12:45:19;30.90;80.00
52565;DHT22;38460;53.106;7.004;2023-07-08T12:47:46;30.90;79.50
52565;DHT22;38460;53.106;7.004;2023-07-08T12:50:15;31.00;79.90
52565;DHT22;38460;53.106;7.004;2023-07-08T12:52:44;31.20;80.00
52565;DHT22;38460;53.106;7.004;2023-07-08T12:55:12;31.20;79.60
52565;DHT22;38460;53.106;7.004;2023-07-08T12:57:40;31.30;80.00
52565;DHT22;38460;53.106;7.004;2023-07-08T13:00:14;31.40;79.30
52565;DHT22;38460;53.106;7.004;2023-07-08T13:02:43;31.40;78.30
52565;DHT22;38460;53.106;7.004;2023-07-08T13:05:09;31.50;78.10
52565;DHT22;38460;53.106;7.004;2023-07-08T13:07:41;31.60;78.00
52565;DHT22;38460;53.106;7.004;2023-07-08T13:10:16;31.60;76.90
52565;DHT22;38460;53.106;7.004;2023-07-08T13:12:43;31.70;76.10
52565;DHT22;38460;53.106;7.004;2023-07-08T13:15:18;31.80;75.70
52565;DHT22;38460;53.106;7.004;2023-07-08T13:17:46;31.90;75.50
52565;DHT22;38460;53.106;7.004;2023-07-08T13:20:16;32.00;75.70
52565;DHT22;38460;53.106;7.004;2023-07-08T13:22:54;32.10;76.10
52565;DHT22;38460;53.106;7.004;2023-07-08T13:25:26;32.20;75.60
52565;DHT22;38460;53.106;7.004;2023-07-08T13:27:58;32.30;75.30
52565;DHT22;38460;53.106;7.004;2023-07-08T13:30:27;32.40;75.90
52565;DHT22;38460;53.106;7.004;2023-07-08T13:32:57;32.60;75.10
52565;DHT22;38460;53.106;7.004;2023-07-08T13:35:40;32.70;73.80
52565;DHT22;38460;53.106;7.004;2023-07-08T13:38:11;32.80;73.00
52565;DHT22;38460;53.106;7.004;2023-07-08T13:40:45;33.00;72.50
52565;DHT22;38460;53.106;7.004;2023-07-08T13:43:11;33.00;71.80
52565;DHT22;38460;53.106;7.004;2023-07-08T13:45:37;33.20;72.60
52565;DHT22;38460;53.106;7.004;2023-07-08T13:48:24;33.30;71.80
52565;DHT22;38460;53.106;7.004;2023-07-08T13:53:33;33.60;69.80
52565;DHT22;38460;53.106;7.004;2023-07-08T13:56:25;33.70;69.10
52565;DHT22;38460;53.106;7.004;2023-07-08T13:58:54;33.70;67.80
52565;DHT22;38460;53.106;7.004;2023-07-08T14:01:26;33.70;67.60
52565;DHT22;38460;53.106;7.004;2023-07-08T14:03:54;33.90;68.40
52565;DHT22;38460;53.106;7.004;2023-07-08T14:06:22;34.10;68.30
52565;DHT22;38460;53.106;7.004;2023-07-08T14:08:49;34.20;67.20
52565;DHT22;38460;53.106;7.004;2023-07-08T14:11:15;34.30;66.40
52565;DHT22;38460;53.106;7.004;2023-07-08T14:13:40;34.40;66.10
52565;DHT22;38460;53.106;7.004;2023-07-08T14:16:25;34.50;67.30
52565;DHT22;38460;53.106;7.004;2023-07-08T14:18:54;34.60;65.70
52565;DHT22;38460;53.106;7.004;2023-07-08T14:21:20;34.80;65.90
52565;DHT22;38460;53.106;7.004;2023-07-08T14:23:46;34.90;65.50
52565;DHT22;38460;53.106;7.004;2023-07-08T14:26:12;34.90;64.70
52565;DHT22;38460;53.106;7.004;2023-07-08T14:28:37;35.00;64.50
52565;DHT22;38460;53.106;7.004;2023-07-08T14:31:12;35.00;63.70
52565;DHT22;38460;53.106;7.004;2023-07-08T14:33:38;35.10;62.20
52565;DHT22;38460;53.106;7.004;2023-07-08T14:36:09;35.20;62.60
52565;DHT22;38460;53.106;7.004;2023-07-08T14:38:36;35.20;61.10
52565;DHT22;38460;53.106;7.004;2023-07-08T14:41:02;35.30;62.00
52565;DHT22;38460;53.106;7.004;2023-07-08T14:43:29;35.30;61.20
52565;DHT22;38460;53.106;7.004;2023-07-08T14:45:57;35.30;61.10
52565;DHT22;38460;53.106;7.004;2023-07-08T14:48:26;35.40;60.90
52565;DHT22;38460;53.106;7.004;2023-07-08T14:50:52;35.40;60.70
52565;DHT22;38460;53.106;7.004;2023-07-08T14:53:18;35.50;60.60
52565;DHT22;38460;53.106;7.004;2023-07-08T14:55:46;35.60;60.40
52565;DHT22;38460;53.106;7.004;2023-07-08T14:58:32;35.60;59.70
52565;DHT22;38460;53.106;7.004;2023-07-08T15:01:00;35.70;58.40
52565;DHT22;38460;53.106;7.004;2023-07-08T15:03:28;35.70;59.50
52565;DHT22;38460;53.106;7.004;2023-07-08T15:05:54;35.80;59.40
52565;DHT22;38460;53.106;7.004;2023-07-08T15:08:20;35.80;59.20
52565;DHT22;38460;53.106;7.004;2023-07-08T15:10:51;35.90;59.30
52565;DHT22;38460;53.106;7.004;2023-07-08T15:13:23;36.00;60.00
52565;DHT22;38460;53.106;7.004;2023-07-08T15:15:51;36.20;59.50
52565;DHT22;38460;53.106;7.004;2023-07-08T15:18:18;36.20;59.10
52565;DHT22;38460;53.106;7.004;2023-07-08T15:20:45;36.20;59.00
52565;DHT22;38460;53.106;7.004;2023-07-08T15:23:10;36.30;58.10
52565;DHT22;38460;53.106;7.004;2023-07-08T15:25:40;36.30;57.60
52565;DHT22;38460;53.106;7.004;2023-07-08T15:28:16;36.30;57.60
52565;DHT22;38460;53.106;7.004;2023-07-08T15:30:42;36.30;56.90
52565;DHT22;38460;53.106;7.004;2023-07-08T15:33:09;36.20;57.10
52565;DHT22;38460;53.106;7.004;2023-07-08T15:35:34;36.20;56.80
52565;DHT22;38460;53.106;7.004;2023-07-08T15:38:00;36.20;57.30
52565;DHT22;38460;53.106;7.004;2023-07-08T15:40:34;36.10;56.90
52565;DHT22;38460;53.106;7.004;2023-07-08T15:43:02;36.10;56.80
52565;DHT22;38460;53.106;7.004;2023-07-08T15:45:32;36.20;57.00
52565;DHT22;38460;53.106;7.004;2023-07-08T15:47:59;36.20;56.40
52565;DHT22;38460;53.106;7.004;2023-07-08T15:50:26;36.10;56.30
52565;DHT22;38460;53.106;7.004;2023-07-08T15:52:54;36.10;55.90
52565;DHT22;38460;53.106;7.004;2023-07-08T15:55:31;36.10;56.50
52565;DHT22;38460;53.106;7.004;2023-07-08T16:01:01;36.10;55.90
52565;DHT22;38460;53.106;7.004;2023-07-08T16:03:30;36.00;55.20
52565;DHT22;38460;53.106;7.004;2023-07-08T16:05:58;36.00;55.20
52565;DHT22;38460;53.106;7.004;2023-07-08T16:08:24;36.00;55.00
52565;DHT22;38460;53.106;7.004;2023-07-08T16:10:55;35.90;54.70
52565;DHT22;38460;53.106;7.004;2023-07-08T16:13:30;35.90;54.90
52565;DHT22;38460;53.106;7.004;2023-07-08T16:15:56;35.90;55.00
52565;DHT22;38460;53.106;7.004;2023-07-08T16:18:22;35.90;55.10
52565;DHT22;38460;53.106;7.004;2023-07-08T16:20:48;35.90;55.00
52565;DHT22;38460;53.106;7.004;2023-07-08T16:23:14;35.80;54.70
52565;DHT22;38460;53.106;7.004;2023-07-08T16:25:46;35.80;55.70
52565;DHT22;38460;53.106;7.004;2023-07-08T16:28:35;35.80;56.00
52565;DHT22;38460;53.106;7.004;2023-07-08T16:31:20;35.80;56.10
52565;DHT22;38460;53.106;7.004;2023-07-08T16:33:47;35.90;56.00
52565;DHT22;38460;53.106;7.004;2023-07-08T16:36:22;35.80;56.10
52565;DHT22;38460;53.106;7.004;2023-07-08T16:38:48;35.80;57.20
52565;DHT22;38460;53.106;7.004;2023-07-08T16:41:17;35.70;55.90
52565;DHT22;38460;53.106;7.004;2023-07-08T16:43:43;35.60;55.60
52565;DHT22;38460;53.106;7.004;2023-07-08T16:46:14;35.60;55.70
52565;DHT22;38460;53.106;7.004;2023-07-08T16:48:40;35.40;55.00
52565;DHT22;38460;53.106;7.004;2023-07-08T16:51:16;35.40;55.50
52565;DHT22;38460;53.106;7.004;2023-07-08T16:53:43;35.20;55.80
52565;DHT22;38460;53.106;7.004;2023-07-08T16:56:15;35.20;55.20